IBE843 OPKC-OMAA
Flight info
| Callsign | IBE843 |
|---|---|
| Flight time | N/A |
| Altitude | 40000 |
| Route | MELOM1F/25L MELOM A325 PARET A454 VUSET R462 MIXAM P899 ROVOS |
| Aircraft | A346/H-SDE2E3FGHIJ3J4J5M1RWXY/LB1D1 |
Departure
| Time | N/A |
|---|---|
| Airport | Jinnah International Airport (OPKC) |
Arrival
| Time | 2026-05-07 07:20 |
|---|---|
| Airport | Zayed International Airport (OMAA) |
| Time | Latitude | Longitude | Altitude | Speed | Heading |
|---|---|---|---|---|---|
| 2026-05-07 06:37 | 23.74920 | 57.67033 | 39836 ft | 458 kts | 282° |
| 2026-05-07 06:38 | 23.76393 | 57.60288 | 39822 ft | 459 kts | 282° |
| 2026-05-07 06:38 | 23.77866 | 57.53503 | 39837 ft | 459 kts | 282° |
| 2026-05-07 06:39 | 23.79335 | 57.46710 | 39833 ft | 459 kts | 282° |
| 2026-05-07 06:39 | 23.80801 | 57.39911 | 39830 ft | 459 kts | 282° |
| 2026-05-07 06:40 | 23.82265 | 57.33115 | 39830 ft | 459 kts | 282° |
| 2026-05-07 06:40 | 23.83730 | 57.26297 | 39743 ft | 460 kts | 282° |
| 2026-05-07 06:41 | 23.84451 | 57.22934 | 39490 ft | 458 kts | 282° |
| 2026-05-07 06:41 | 23.85176 | 57.19548 | 39257 ft | 456 kts | 282° |
| 2026-05-07 06:41 | 23.85899 | 57.16173 | 39037 ft | 454 kts | 282° |
| 2026-05-07 06:41 | 23.86615 | 57.12821 | 38826 ft | 452 kts | 282° |
| 2026-05-07 06:42 | 23.87339 | 57.09435 | 38592 ft | 450 kts | 282° |
| 2026-05-07 06:42 | 23.88042 | 57.06139 | 38332 ft | 450 kts | 281° |
| 2026-05-07 06:42 | 23.88753 | 57.02800 | 38071 ft | 450 kts | 281° |
| 2026-05-07 06:42 | 23.89463 | 56.99463 | 37803 ft | 450 kts | 281° |
| 2026-05-07 06:43 | 23.90174 | 56.96118 | 37544 ft | 450 kts | 281° |
| 2026-05-07 06:43 | 23.90886 | 56.92765 | 37296 ft | 450 kts | 281° |
| 2026-05-07 06:43 | 23.91595 | 56.89422 | 37038 ft | 452 kts | 282° |
| 2026-05-07 06:43 | 23.92308 | 56.86049 | 36807 ft | 466 kts | 281° |
| 2026-05-07 06:44 | 23.93771 | 56.79138 | 36639 ft | 466 kts | 281° |
| 2026-05-07 06:44 | 23.95231 | 56.72223 | 36512 ft | 466 kts | 281° |
| 2026-05-07 06:45 | 23.96687 | 56.65301 | 36352 ft | 466 kts | 281° |
| 2026-05-07 06:45 | 23.98143 | 56.58375 | 36253 ft | 466 kts | 281° |
| 2026-05-07 06:46 | 23.98867 | 56.54922 | 36141 ft | 461 kts | 281° |
| 2026-05-07 06:46 | 23.99573 | 56.51554 | 35556 ft | 459 kts | 281° |
| 2026-05-07 06:46 | 24.00287 | 56.48136 | 34659 ft | 463 kts | 281° |
| 2026-05-07 06:46 | 24.01007 | 56.44689 | 33857 ft | 465 kts | 281° |
| 2026-05-07 06:47 | 24.01724 | 56.41244 | 32950 ft | 466 kts | 281° |
| 2026-05-07 06:47 | 24.02449 | 56.37758 | 31874 ft | 470 kts | 282° |
| 2026-05-07 06:47 | 24.03178 | 56.34248 | 30800 ft | 476 kts | 282° |
| 2026-05-07 06:47 | 24.03946 | 56.30696 | 29795 ft | 482 kts | 283° |
| 2026-05-07 06:48 | 24.04869 | 56.27137 | 28627 ft | 487 kts | 286° |
| 2026-05-07 06:48 | 24.05942 | 56.23677 | 27883 ft | 483 kts | 289° |
| 2026-05-07 06:48 | 24.07130 | 56.20234 | 27299 ft | 480 kts | 290° |
| 2026-05-07 06:48 | 24.08321 | 56.16839 | 26647 ft | 475 kts | 290° |
| 2026-05-07 06:49 | 24.09507 | 56.13471 | 26035 ft | 472 kts | 290° |
| 2026-05-07 06:49 | 24.10687 | 56.10123 | 25407 ft | 468 kts | 291° |
| 2026-05-07 06:49 | 24.11849 | 56.06814 | 24746 ft | 464 kts | 291° |
| 2026-05-07 06:49 | 24.13005 | 56.03523 | 24116 ft | 459 kts | 291° |
| 2026-05-07 06:50 | 24.14141 | 56.00279 | 23536 ft | 453 kts | 291° |
| 2026-05-07 06:50 | 24.15260 | 55.97080 | 22876 ft | 448 kts | 291° |
| 2026-05-07 06:50 | 24.16369 | 55.93910 | 22286 ft | 442 kts | 291° |
| 2026-05-07 06:50 | 24.17464 | 55.90778 | 21714 ft | 437 kts | 291° |
| 2026-05-07 06:51 | 24.18544 | 55.87686 | 21157 ft | 432 kts | 291° |
| 2026-05-07 06:51 | 24.19613 | 55.84620 | 20622 ft | 428 kts | 291° |
| 2026-05-07 06:51 | 24.20648 | 55.81615 | 20099 ft | 424 kts | 291° |
| 2026-05-07 06:51 | 24.21578 | 55.78552 | 19580 ft | 421 kts | 288° |
| 2026-05-07 06:52 | 24.22365 | 55.75470 | 19040 ft | 419 kts | 286° |
| 2026-05-07 06:52 | 24.23120 | 55.72384 | 18517 ft | 417 kts | 286° |
| 2026-05-07 06:52 | 24.23866 | 55.69315 | 17995 ft | 415 kts | 285° |
| 2026-05-07 06:52 | 24.24609 | 55.66255 | 17408 ft | 413 kts | 286° |
| 2026-05-07 06:53 | 24.25344 | 55.63228 | 16915 ft | 409 kts | 285° |
| 2026-05-07 06:53 | 24.26045 | 55.60211 | 16425 ft | 406 kts | 283° |
| 2026-05-07 06:53 | 24.26638 | 55.57248 | 16053 ft | 398 kts | 283° |
| 2026-05-07 06:53 | 24.27204 | 55.54318 | 15871 ft | 385 kts | 283° |
| 2026-05-07 06:54 | 24.27750 | 55.51492 | 15651 ft | 374 kts | 282° |
| 2026-05-07 06:54 | 24.28277 | 55.48741 | 15489 ft | 361 kts | 283° |
| 2026-05-07 06:54 | 24.28789 | 55.46082 | 15304 ft | 351 kts | 282° |
| 2026-05-07 06:54 | 24.29281 | 55.43506 | 15199 ft | 338 kts | 282° |
| 2026-05-07 06:55 | 24.29758 | 55.41024 | 15090 ft | 326 kts | 283° |
| 2026-05-07 06:55 | 24.30221 | 55.38626 | 14987 ft | 315 kts | 281° |
| 2026-05-07 06:55 | 24.30329 | 55.36254 | 14854 ft | 310 kts | 262° |
| 2026-05-07 06:55 | 24.29691 | 55.33949 | 14855 ft | 323 kts | 245° |
| 2026-05-07 06:56 | 24.28665 | 55.31748 | 14864 ft | 326 kts | 242° |
| 2026-05-07 06:56 | 24.27582 | 55.29552 | 14862 ft | 326 kts | 241° |
| 2026-05-07 06:56 | 24.26506 | 55.27369 | 14862 ft | 326 kts | 242° |
| 2026-05-07 06:56 | 24.25434 | 55.25173 | 14856 ft | 326 kts | 242° |
| 2026-05-07 06:57 | 24.24365 | 55.22967 | 14856 ft | 328 kts | 242° |
| 2026-05-07 06:57 | 24.23301 | 55.20756 | 14857 ft | 327 kts | 242° |
| 2026-05-07 06:57 | 24.22597 | 55.19290 | 14855 ft | 327 kts | 242° |
| 2026-05-07 06:57 | 24.21538 | 55.17082 | 14855 ft | 327 kts | 242° |
| 2026-05-07 06:58 | 24.20136 | 55.14158 | 14844 ft | 327 kts | 242° |
| 2026-05-07 06:58 | 24.19075 | 55.11946 | 14842 ft | 328 kts | 242° |
| 2026-05-07 06:58 | 24.18016 | 55.09737 | 14843 ft | 328 kts | 242° |
| 2026-05-07 06:58 | 24.17312 | 55.08270 | 14841 ft | 327 kts | 242° |
| 2026-05-07 06:59 | 24.15893 | 55.05317 | 14831 ft | 326 kts | 242° |
| 2026-05-07 06:59 | 24.14835 | 55.03115 | 14814 ft | 326 kts | 242° |
| 2026-05-07 06:59 | 24.14133 | 55.01656 | 14694 ft | 327 kts | 242° |
| 2026-05-07 06:59 | 24.13120 | 54.99422 | 14279 ft | 327 kts | 251° |
| 2026-05-07 07:00 | 24.12874 | 54.96984 | 13900 ft | 322 kts | 280° |
| 2026-05-07 07:00 | 24.13679 | 54.94744 | 13541 ft | 316 kts | 306° |
| 2026-05-07 07:00 | 24.15036 | 54.92871 | 13200 ft | 311 kts | 311° |
| 2026-05-07 07:00 | 24.16402 | 54.91038 | 12854 ft | 309 kts | 311° |
| 2026-05-07 07:01 | 24.17750 | 54.89204 | 12531 ft | 307 kts | 310° |
| 2026-05-07 07:01 | 24.19079 | 54.87373 | 12188 ft | 305 kts | 310° |
| 2026-05-07 07:01 | 24.20369 | 54.85581 | 11866 ft | 303 kts | 310° |
| 2026-05-07 07:01 | 24.21667 | 54.83771 | 11532 ft | 301 kts | 310° |
| 2026-05-07 07:02 | 24.22959 | 54.81965 | 11210 ft | 299 kts | 310° |
| 2026-05-07 07:02 | 24.24241 | 54.80169 | 10891 ft | 298 kts | 309° |
| 2026-05-07 07:02 | 24.25517 | 54.78380 | 10569 ft | 297 kts | 309° |
| 2026-05-07 07:02 | 24.26789 | 54.76595 | 10269 ft | 296 kts | 309° |
| 2026-05-07 07:03 | 24.28054 | 54.74818 | 9949 ft | 294 kts | 309° |
| 2026-05-07 07:03 | 24.29310 | 54.73051 | 9640 ft | 293 kts | 310° |
| 2026-05-07 07:03 | 24.30562 | 54.71297 | 9302 ft | 290 kts | 309° |
| 2026-05-07 07:03 | 24.31799 | 54.69555 | 9000 ft | 288 kts | 310° |
| 2026-05-07 07:04 | 24.33030 | 54.67826 | 8712 ft | 289 kts | 309° |
| 2026-05-07 07:04 | 24.34282 | 54.66067 | 8735 ft | 294 kts | 309° |
| 2026-05-07 07:04 | 24.35545 | 54.64294 | 8760 ft | 295 kts | 309° |
| 2026-05-07 07:04 | 24.36808 | 54.62515 | 8790 ft | 295 kts | 309° |
| 2026-05-07 07:05 | 24.38053 | 54.60760 | 8807 ft | 295 kts | 309° |
| 2026-05-07 07:05 | 24.39317 | 54.58980 | 8816 ft | 295 kts | 309° |
| 2026-05-07 07:05 | 24.40576 | 54.57206 | 8817 ft | 295 kts | 309° |
| 2026-05-07 07:05 | 24.41843 | 54.55421 | 8820 ft | 295 kts | 309° |
| 2026-05-07 07:06 | 24.43107 | 54.53639 | 8820 ft | 295 kts | 309° |
| 2026-05-07 07:06 | 24.44374 | 54.51856 | 8819 ft | 295 kts | 309° |
| 2026-05-07 07:06 | 24.45638 | 54.50081 | 8820 ft | 295 kts | 309° |
| 2026-05-07 07:06 | 24.46901 | 54.48301 | 8820 ft | 294 kts | 310° |
| 2026-05-07 07:07 | 24.48164 | 54.46523 | 8820 ft | 294 kts | 310° |
| 2026-05-07 07:07 | 24.49427 | 54.44748 | 8821 ft | 295 kts | 310° |
| 2026-05-07 07:07 | 24.50688 | 54.42977 | 8822 ft | 293 kts | 310° |
| 2026-05-07 07:07 | 24.51894 | 54.41277 | 8825 ft | 278 kts | 310° |
| 2026-05-07 07:08 | 24.53063 | 54.39629 | 8819 ft | 271 kts | 311° |
| 2026-05-07 07:08 | 24.54223 | 54.37997 | 8817 ft | 270 kts | 311° |
| 2026-05-07 07:08 | 24.55385 | 54.36367 | 8789 ft | 270 kts | 311° |
| 2026-05-07 07:08 | 24.56553 | 54.34726 | 8518 ft | 272 kts | 311° |
| 2026-05-07 07:09 | 24.57714 | 54.33093 | 8200 ft | 270 kts | 311° |
| 2026-05-07 07:09 | 24.58870 | 54.31464 | 7914 ft | 268 kts | 311° |
| 2026-05-07 07:09 | 24.60013 | 54.29847 | 7624 ft | 266 kts | 311° |
| 2026-05-07 07:09 | 24.61145 | 54.28245 | 7342 ft | 264 kts | 311° |
| 2026-05-07 07:10 | 24.62268 | 54.26656 | 7075 ft | 262 kts | 311° |
| 2026-05-07 07:10 | 24.63378 | 54.25103 | 6940 ft | 252 kts | 316° |
| 2026-05-07 07:10 | 24.64750 | 54.24114 | 6828 ft | 232 kts | 352° |
| 2026-05-07 07:10 | 24.66282 | 54.24249 | 6631 ft | 220 kts | 26° |
| 2026-05-07 07:11 | 24.67542 | 54.25185 | 6376 ft | 218 kts | 39° |
| 2026-05-07 07:11 | 24.68629 | 54.26347 | 6081 ft | 219 kts | 59° |
| 2026-05-07 07:11 | 24.69024 | 54.27966 | 5812 ft | 221 kts | 91° |
| 2026-05-07 07:11 | 24.68550 | 54.29555 | 5547 ft | 228 kts | 121° |
| 2026-05-07 07:12 | 24.67585 | 54.30944 | 5302 ft | 228 kts | 124° |
| 2026-05-07 07:12 | 24.66597 | 54.32308 | 5046 ft | 227 kts | 125° |
| 2026-05-07 07:12 | 24.65613 | 54.33659 | 4806 ft | 226 kts | 125° |
| 2026-05-07 07:12 | 24.64628 | 54.35012 | 4568 ft | 226 kts | 125° |
| 2026-05-07 07:13 | 24.63649 | 54.36369 | 4315 ft | 225 kts | 125° |
| 2026-05-07 07:13 | 24.62678 | 54.37723 | 4073 ft | 224 kts | 125° |
| 2026-05-07 07:13 | 24.61735 | 54.39043 | 3954 ft | 217 kts | 125° |
| 2026-05-07 07:13 | 24.60814 | 54.40337 | 3721 ft | 214 kts | 124° |
| 2026-05-07 07:14 | 24.59901 | 54.41627 | 3420 ft | 211 kts | 124° |
| 2026-05-07 07:14 | 24.59009 | 54.42888 | 3172 ft | 206 kts | 125° |
| 2026-05-07 07:14 | 24.58140 | 54.44119 | 2987 ft | 201 kts | 125° |
| 2026-05-07 07:14 | 24.57286 | 54.45328 | 2972 ft | 200 kts | 125° |
| 2026-05-07 07:15 | 24.56434 | 54.46534 | 2946 ft | 199 kts | 125° |
| 2026-05-07 07:15 | 24.55581 | 54.47743 | 2981 ft | 199 kts | 125° |
| 2026-05-07 07:15 | 24.54741 | 54.48931 | 2961 ft | 195 kts | 124° |
| 2026-05-07 07:15 | 24.53910 | 54.50109 | 2906 ft | 195 kts | 125° |
| 2026-05-07 07:16 | 24.53086 | 54.51277 | 2668 ft | 191 kts | 126° |
| 2026-05-07 07:16 | 24.52276 | 54.52424 | 2407 ft | 190 kts | 127° |
| 2026-05-07 07:16 | 24.51494 | 54.53529 | 2208 ft | 175 kts | 127° |
| 2026-05-07 07:16 | 24.50794 | 54.54523 | 1980 ft | 157 kts | 129° |
| 2026-05-07 07:17 | 24.50144 | 54.55444 | 1790 ft | 149 kts | 129° |
| 2026-05-07 07:17 | 24.49511 | 54.56342 | 1627 ft | 148 kts | 131° |
| 2026-05-07 07:17 | 24.48881 | 54.57233 | 1444 ft | 147 kts | 131° |
| 2026-05-07 07:17 | 24.48244 | 54.58133 | 1259 ft | 146 kts | 131° |
| 2026-05-07 07:18 | 24.47629 | 54.59004 | 1079 ft | 146 kts | 129° |
| 2026-05-07 07:18 | 24.47004 | 54.59890 | 905 ft | 146 kts | 130° |
| 2026-05-07 07:18 | 24.46383 | 54.60772 | 718 ft | 145 kts | 130° |
| 2026-05-07 07:18 | 24.45765 | 54.61649 | 537 ft | 145 kts | 132° |
| 2026-05-07 07:19 | 24.45146 | 54.62523 | 369 ft | 143 kts | 132° |
| 2026-05-07 07:19 | 24.44547 | 54.63370 | 168 ft | 137 kts | 131° |
| 2026-05-07 07:19 | 24.44000 | 54.64133 | 91 ft | 100 kts | 128° |
| 2026-05-07 07:19 | 24.43680 | 54.64592 | 87 ft | 67 kts | 127° |
| 2026-05-07 07:20 | 24.43433 | 54.64942 | 90 ft | 48 kts | 128° |
| 2026-05-07 07:20 | 24.43221 | 54.65203 | 90 ft | 44 kts | 139° |
| 2026-05-07 07:20 | 24.43067 | 54.65299 | 88 ft | 0 kts | 159° |
| 2026-05-07 07:20 | 24.43059 | 54.65302 | 87 ft | 3 kts | 159° |
| 2026-05-07 07:21 | 24.43025 | 54.65317 | 88 ft | 7 kts | 159° |
| 2026-05-07 07:21 | 24.42991 | 54.65331 | 87 ft | 0 kts | 159° |
| 2026-05-07 07:21 | 24.42986 | 54.65333 | 86 ft | 2 kts | 159° |
| 2026-05-07 07:21 | 24.42960 | 54.65344 | 89 ft | 6 kts | 159° |
| 2026-05-07 07:22 | 24.44653 | 54.64491 | 87 ft | 0 kts | 232° |